Terminal Aerodrome Forecast
Issued by NWS

Home | Current Version | Previous Version | Text Only | Print | Product List | Glossary On
Versions: 1 2 3 4 5 6 7 8 9 10 11 12 13 14 15 16 17
000
FTUS44 KLIX 222300
TAFMSY
TAF
KMSY 222337Z 2300/2324 18003KT P6SM FEW060 BKN250
     FM230200 00000KT P6SM SCT150
     FM231600 VRB03KT P6SM SCT030 BKN050 PROB30 2319/2322 VRB20KT
      3SM TSRA BKN040CB=

USA.gov is the U.S. government's official web portal to all federal, state and local government web resources and services.